Time;durP1;ratioP1;P1;durP2;ratioP2;P2;SDS_P1;SDS_P2;PMS_P1;PMS_P2;Temp;Humidity;BMP_temperature;BMP_pressure;BME280_temperature;BME280_humidity;BME280_pressure;Samples;Min_cycle;Max_cycle;Signal;HPM_P1;HPM_P2
2023/01/01 00:01:24;;;;;;;10.13;3.77;;;;;;;14.41;85.01;100107.97;5206779;28;20029;-72
2023/01/01 00:03:57;;;;;;;10.13;4.03;;;;;;;14.43;84.69;100111.38;5202807;28;20490;-72
2023/01/01 00:06:28;;;;;;;10.90;3.10;;;;;;;14.51;84.95;100120.50;5208065;28;20025;-72
2023/01/01 00:11:47;;;;;;;12.85;3.20;;;;;;;14.61;84.02;100115.53;5208798;28;20277;-71
2023/01/01 00:14:17;;;;;;;7.70;2.83;;;;;;;14.59;84.01;100106.91;5200303;28;20388;-72
2023/01/01 00:16:48;;;;;;;9.57;2.58;;;;;;;14.44;84.95;100105.16;5208950;28;20043;-72
2023/01/01 00:19:18;;;;;;;9.73;2.58;;;;;;;14.45;85.36;100104.22;5207007;28;20029;-72
2023/01/01 00:21:48;;;;;;;9.45;2.55;;;;;;;14.50;84.43;100104.78;5216069;28;20039;-72
2023/01/01 00:24:19;;;;;;;9.85;2.50;;;;;;;14.44;85.08;100107.78;5191335;28;20043;-73
2023/01/01 00:26:49;;;;;;;10.95;2.50;;;;;;;14.36;84.83;100110.00;5208304;28;20029;-73
2023/01/01 00:29:19;;;;;;;6.30;2.30;;;;;;;14.60;84.02;100106.78;5188590;28;20380;-72
2023/01/01 00:31:50;;;;;;;9.07;2.30;;;;;;;14.53;84.38;100113.38;5207303;28;20574;-72
2023/01/01 00:34:20;;;;;;;6.30;2.30;;;;;;;14.60;83.93;100108.59;5210009;28;20033;-72
2023/01/01 00:36:50;;;;;;;7.93;2.53;;;;;;;14.57;83.68;100114.03;5230622;22;20555;-75
2023/01/01 00:39:21;;;;;;;8.93;2.20;;;;;;;14.52;84.19;100116.06;5188561;28;20115;-73
2023/01/01 00:41:51;;;;;;;5.88;2.10;;;;;;;14.56;83.42;100123.69;5184434;28;20030;-75
2023/01/01 00:44:21;;;;;;;10.07;2.08;;;;;;;14.58;83.41;100129.72;5184016;28;20478;-77
2023/01/01 00:46:52;;;;;;;8.63;2.30;;;;;;;14.79;82.90;100114.44;5186589;28;20022;-76
2023/01/01 00:49:22;;;;;;;8.40;2.42;;;;;;;14.67;83.24;100110.75;5189807;28;20049;-74
2023/01/01 00:51:52;;;;;;;7.85;2.30;;;;;;;14.62;82.80;100115.44;5173379;28;20148;-75
2023/01/01 00:54:23;;;;;;;9.02;2.50;;;;;;;14.48;83.39;100125.09;5173493;28;20076;-77
2023/01/01 00:56:54;;;;;;;13.68;2.80;;;;;;;14.60;82.10;100119.94;5195528;28;20026;-75
2023/01/01 00:59:24;;;;;;;8.00;2.20;;;;;;;14.68;82.52;100130.00;5191867;28;20038;-76
2023/01/01 01:01:55;;;;;;;9.05;2.15;;;;;;;14.80;81.38;100127.50;5184115;28;20029;-77
2023/01/01 01:04:25;;;;;;;8.85;2.20;;;;;;;14.68;82.04;100133.50;5184293;28;20038;-76
2023/01/01 01:06:55;;;;;;;6.80;2.33;;;;;;;14.76;82.29;100130.41;5190861;28;20415;-76
2023/01/01 01:09:25;;;;;;;10.05;2.42;;;;;;;14.68;82.26;100133.50;5186949;28;20038;-75
2023/01/01 01:11:56;;;;;;;15.15;2.60;;;;;;;14.74;82.15;100127.03;5184199;28;20022;-75
2023/01/01 01:14:26;;;;;;;11.68;3.03;;;;;;;14.74;83.00;100132.28;5189723;28;20142;-77
2023/01/01 01:16:57;;;;;;;8.40;2.40;;;;;;;14.65;82.73;100123.16;5171079;28;20032;-75
2023/01/01 01:19:27;;;;;;;7.43;2.65;;;;;;;14.46;83.44;100121.69;5176283;28;20029;-74
2023/01/01 01:21:57;;;;;;;11.52;2.55;;;;;;;14.52;82.95;100122.19;5186627;28;20026;-76
2023/01/01 01:24:28;;;;;;;7.75;2.78;;;;;;;14.70;81.93;100126.34;5188119;28;20032;-76
2023/01/01 01:26:58;;;;;;;10.52;2.42;;;;;;;14.66;82.40;100119.59;5173272;28;20029;-75
2023/01/01 01:29:28;;;;;;;7.20;3.00;;;;;;;14.60;82.85;100124.38;5186388;28;20033;-76
2023/01/01 01:31:58;;;;;;;8.52;2.38;;;;;;;14.60;82.31;100124.38;5187178;28;20022;-75
2023/01/01 01:34:29;;;;;;;8.45;3.10;;;;;;;14.58;83.03;100118.34;5184445;28;20041;-76
2023/01/01 01:36:59;;;;;;;7.68;2.50;;;;;;;14.49;82.66;100127.63;5189779;28;20061;-75
2023/01/01 01:39:30;;;;;;;11.38;2.72;;;;;;;14.69;82.17;100129.06;5166581;28;20037;-75
2023/01/01 01:42:02;;;;;;;9.18;2.20;;;;;;;14.65;82.92;100117.03;5165839;28;20475;-76
2023/01/01 01:44:47;;;;;;;8.45;2.17;;;;;;;14.66;82.56;100126.63;5188832;28;20050;-75
2023/01/01 01:47:26;;;;;;;8.05;2.33;;;;;;;14.71;82.57;100127.19;5190099;28;20265;-75
2023/01/01 01:50:24;;;;;;;6.40;2.70;;;;;;;14.66;81.33;100124.84;5194894;28;20033;-74
2023/01/01 01:53:08;;;;;;;10.68;2.40;;;;;;;14.66;81.86;100119.59;5180756;28;20498;-75
2023/01/01 01:55:42;;;;;;;11.93;2.85;;;;;;;14.64;82.31;100128.50;5187736;28;20030;-75
2023/01/01 01:58:14;;;;;;;9.65;2.20;;;;;;;14.66;81.95;100130.13;5182998;28;20029;-75
2023/01/01 02:00:44;;;;;;;9.25;2.40;;;;;;;14.64;81.94;100131.13;5184741;28;20549;-76
2023/01/01 02:03:43;;;;;;;7.07;2.35;;;;;;;14.64;82.10;100131.13;5180321;28;20033;-75
2023/01/01 02:06:14;;;;;;;8.30;2.65;;;;;;;14.50;82.34;100137.22;5175796;28;20032;-74
2023/01/01 02:08:45;;;;;;;9.38;2.80;;;;;;;14.53;82.25;100123.00;5165922;28;20112;-74
2023/01/01 02:11:15;;;;;;;9.45;2.92;;;;;;;14.49;82.04;100132.03;5173013;28;20139;-75
2023/01/01 02:13:46;;;;;;;9.70;2.80;;;;;;;14.47;82.77;100134.78;5172502;28;20121;-75
2023/01/01 02:16:21;;;;;;;11.50;2.97;;;;;;;14.45;83.09;100133.16;5188393;28;20036;-75
2023/01/01 02:19:02;;;;;;;13.43;3.20;;;;;;;14.45;82.88;100133.16;5189356;28;20341;-75
2023/01/01 02:21:56;;;;;;;11.73;3.08;;;;;;;14.44;82.89;100123.56;5195443;28;20036;-75
2023/01/01 02:24:35;;;;;;;7.13;2.92;;;;;;;14.36;82.51;100120.53;5189332;28;20022;-75
2023/01/01 02:27:10;;;;;;;8.55;2.70;;;;;;;14.52;82.68;100131.84;5170064;28;20419;-76
2023/01/01 02:29:45;;;;;;;;;;;;;;;14.46;83.03;100129.59;5166542;28;20033;-74
2023/01/01 02:32:24;;;;;;;10.00;3.40;;;;;;;14.37;83.40;100132.72;5191280;28;19916;-74
2023/01/01 02:38:15;;;;;;;12.30;3.08;;;;;;;14.36;82.82;100125.78;5182357;28;20529;-74
2023/01/01 02:40:49;;;;;;;10.15;3.17;;;;;;;14.31;83.14;100138.34;5180871;28;20196;-75
2023/01/01 02:43:19;;;;;;;8.88;3.60;;;;;;;14.36;82.11;100141.56;5166919;28;20207;-71
2023/01/01 02:45:49;;;;;;;9.48;3.15;;;;;;;14.30;82.53;100152.44;5183328;28;20029;-75
2023/01/01 02:48:41;;;;;;;9.10;3.30;;;;;;;14.24;82.42;100158.06;5181198;28;20026;-75
2023/01/01 02:51:45;;;;;;;10.50;3.20;;;;;;;14.31;82.92;100160.25;5190469;28;20021;-76
2023/01/01 02:54:16;;;;;;;10.98;3.10;;;;;;;14.32;82.63;100155.81;5186751;28;20597;-74
2023/01/01 02:56:53;;;;;;;11.70;2.80;;;;;;;14.31;81.91;100148.88;5183083;28;20100;-76
2023/01/01 03:02:30;;;;;;;10.88;2.83;;;;;;;14.31;81.87;100155.00;5180645;28;20415;-75
2023/01/01 03:05:28;;;;;;;9.25;3.00;;;;;;;14.40;81.66;100156.25;5179738;28;20527;-75
2023/01/01 03:08:17;;;;;;;9.18;3.00;;;;;;;14.48;80.79;100146.13;5185477;28;20041;-75
2023/01/01 03:11:02;;;;;;;9.55;2.67;;;;;;;14.37;81.55;100157.25;5193293;28;20018;-75
2023/01/01 03:13:43;;;;;;;11.27;2.80;;;;;;;14.31;81.82;100147.09;5184855;28;20021;-74
2023/01/01 03:16:20;;;;;;;8.45;2.75;;;;;;;14.34;82.01;100153.94;5175681;28;20122;-76
2023/01/01 03:19:34;;;;;;;9.52;2.47;;;;;;;14.30;81.07;100157.69;5185705;28;20033;-74
2023/01/01 03:22:08;;;;;;;8.40;3.00;;;;;;;14.43;79.66;100164.78;5117262;28;20527;-77
2023/01/01 03:24:49;;;;;;;9.00;2.75;;;;;;;14.38;79.66;100155.47;5178694;28;20052;-75
2023/01/01 03:27:30;;;;;;;6.68;3.08;;;;;;;14.34;79.84;100162.69;5185299;28;20029;-74
2023/01/01 03:30:06;;;;;;;5.70;2.40;;;;;;;14.35;79.89;100155.63;5193596;28;20029;-76
2023/01/01 03:33:02;;;;;;;8.43;2.75;;;;;;;14.35;79.63;100160.91;5198927;28;20064;-75
2023/01/01 03:35:38;;;;;;;9.75;3.10;;;;;;;14.39;79.16;100151.94;5192022;28;20128;-76
2023/01/01 03:38:25;;;;;;;8.70;2.67;;;;;;;14.49;78.93;100155.69;5173268;28;20036;-75
2023/01/01 03:40:59;;;;;;;;;;;;;;;14.38;78.65;100153.69;5188518;28;20030;-75
2023/01/01 03:43:48;;;;;;;8.45;2.60;;;;;;;14.34;79.36;100153.94;5192547;28;19954;-76
2023/01/01 03:46:24;;;;;;;10.30;3.10;;;;;;;14.38;78.82;100150.19;5188387;28;20026;-74
2023/01/01 03:48:55;;;;;;;8.52;2.90;;;;;;;14.47;78.19;100155.81;5191815;28;20108;-74
2023/01/01 03:52:02;;;;;;;7.80;2.88;;;;;;;14.37;78.59;100154.63;5200355;28;20590;-75
2023/01/01 03:54:51;;;;;;;10.73;3.00;;;;;;;14.27;78.93;100150.81;5192916;28;20030;-73
2023/01/01 03:57:53;;;;;;;11.80;2.92;;;;;;;14.35;78.68;100156.50;5183194;28;20026;-74
2023/01/01 04:00:27;;;;;;;10.93;2.88;;;;;;;14.30;78.82;100160.31;5179940;28;20491;-73
2023/01/01 04:03:21;;;;;;;11.43;2.78;;;;;;;14.32;78.72;100156.69;5181994;28;20033;-74
2023/01/01 04:05:52;;;;;;;8.57;2.90;;;;;;;14.35;78.20;100155.63;5185753;28;20242;-74
2023/01/01 04:08:22;;;;;;;8.18;2.90;;;;;;;14.18;78.79;100142.63;5193959;28;20496;-76
2023/01/01 04:10:58;;;;;;;8.93;2.72;;;;;;;14.09;79.10;100148.38;5193454;28;20495;-74
2023/01/01 04:13:28;;;;;;;9.25;2.90;;;;;;;14.18;79.03;100159.25;5189918;28;20033;-74
2023/01/01 04:15:58;;;;;;;9.77;3.05;;;;;;;14.21;79.09;100159.06;5182265;28;20508;-76
2023/01/01 04:18:28;;;;;;;6.45;2.75;;;;;;;14.10;78.54;100150.06;5192379;28;20026;-74
2023/01/01 04:20:59;;;;;;;10.30;3.05;;;;;;;14.09;79.36;100148.38;5185278;28;20030;-74
2023/01/01 04:23:29;;;;;;;7.03;2.88;;;;;;;14.03;79.25;100140.81;5179114;28;20168;-74
2023/01/01 04:25:59;;;;;;;9.02;2.75;;;;;;;14.03;79.59;100143.44;5185930;28;20468;-74
2023/01/01 04:28:29;;;;;;;9.50;3.20;;;;;;;14.03;79.25;100157.44;5189729;28;20025;-74
2023/01/01 04:31:01;;;;;;;6.43;2.65;;;;;;;13.97;79.34;100164.81;5195090;28;20574;-74
2023/01/01 04:33:31;;;;;;;7.05;3.03;;;;;;;13.95;79.29;100170.16;5197077;28;20033;-75
2023/01/01 04:36:09;;;;;;;9.23;3.15;;;;;;;13.96;79.32;100171.00;5174429;28;20659;-75
2023/01/01 04:38:39;;;;;;;7.90;3.05;;;;;;;13.94;79.03;100178.97;5186574;28;20030;-75
2023/01/01 04:41:10;;;;;;;10.77;2.88;;;;;;;13.92;79.16;100172.13;5193388;28;20060;-73
2023/01/01 04:43:40;;;;;;;8.05;3.53;;;;;;;13.92;79.76;100180.84;5185595;28;20043;-74
2023/01/01 04:46:10;;;;;;;9.48;3.28;;;;;;;13.79;79.79;100171.97;5190507;28;20202;-74
2023/01/01 04:48:40;;;;;;;9.45;3.00;;;;;;;13.74;79.97;100170.50;5190503;28;20040;-74
2023/01/01 04:51:13;;;;;;;8.07;3.30;;;;;;;13.77;80.21;100184.31;5197499;28;20551;-74
2023/01/01 04:53:43;;;;;;;7.53;3.47;;;;;;;13.71;80.24;100178.56;5192846;28;20033;-74
2023/01/01 04:56:17;;;;;;;5.88;3.08;;;;;;;13.74;80.08;100189.72;5162365;28;20255;-76
2023/01/01 04:58:48;;;;;;;9.27;3.20;;;;;;;13.70;79.75;100189.97;5192739;28;20044;-74
2023/01/01 05:01:21;;;;;;;7.13;3.42;;;;;;;13.71;79.86;100194.31;5188639;28;20025;-75
2023/01/01 05:03:51;;;;;;;7.93;3.47;;;;;;;13.77;79.81;100193.97;5187711;28;20025;-74
2023/01/01 05:06:22;;;;;;;8.60;3.70;;;;;;;13.83;78.99;100191.88;5191940;28;20390;-76
2023/01/01 05:08:54;;;;;;;6.90;3.55;;;;;;;13.81;79.44;100192.88;5170410;28;20125;-76
2023/01/01 05:11:27;;;;;;;9.40;3.25;;;;;;;13.76;79.52;100189.66;5182588;28;20407;-74
2023/01/01 05:13:59;;;;;;;9.00;4.05;;;;;;;13.63;79.94;100199.97;5188945;28;20086;-74
2023/01/01 05:16:32;;;;;;;8.30;3.92;;;;;;;13.67;80.63;100203.28;5191325;28;20109;-75
2023/01/01 05:19:03;;;;;;;8.10;3.53;;;;;;;13.58;80.55;100209.03;5190787;28;20033;-74
2023/01/01 05:21:36;;;;;;;7.68;3.47;;;;;;;13.60;80.32;100202.75;5177524;28;20506;-74
2023/01/01 05:24:09;;;;;;;9.60;3.72;;;;;;;13.63;80.65;100207.88;5177287;28;20053;-74
2023/01/01 05:26:41;;;;;;;8.85;4.07;;;;;;;13.62;80.69;100226.31;5184360;28;20446;-74
2023/01/01 05:29:12;;;;;;;13.68;3.80;;;;;;;13.67;80.15;100221.66;5188705;28;20033;-74
2023/01/01 05:31:44;;;;;;;11.93;3.80;;;;;;;13.57;80.17;100223.09;5185055;28;20561;-74
2023/01/01 05:34:14;;;;;;;10.13;3.75;;;;;;;13.58;80.49;100227.41;5190291;28;20029;-75
2023/01/01 05:36:44;;;;;;;8.93;3.42;;;;;;;13.60;80.65;100239.50;5189227;28;20058;-74
2023/01/01 05:39:15;;;;;;;8.82;3.70;;;;;;;13.61;80.70;100240.38;5192587;28;20056;-77
2023/01/01 05:41:45;;;;;;;8.57;4.25;;;;;;;13.63;80.83;100244.63;5184463;28;20034;-75
2023/01/01 05:44:16;;;;;;;11.10;4.10;;;;;;;13.65;79.96;100231.41;5192886;28;20122;-74
2023/01/01 05:46:46;;;;;;;11.50;4.20;;;;;;;13.61;80.63;100246.47;5183652;28;20029;-73
2023/01/01 05:49:16;;;;;;;9.50;3.97;;;;;;;13.59;81.23;100252.75;5168476;28;20036;-73
2023/01/01 05:51:46;;;;;;;10.40;4.40;;;;;;;13.65;81.20;100241.91;5185283;28;20061;-74
2023/01/01 05:54:17;;;;;;;11.48;4.50;;;;;;;13.66;81.28;100248.84;5192466;28;20032;-74
2023/01/01 05:56:47;;;;;;;7.65;3.97;;;;;;;13.63;81.57;100260.38;5186371;28;20391;-76
2023/01/01 05:59:17;;;;;;;13.77;4.30;;;;;;;13.65;81.22;100258.53;5188729;28;20135;-74
2023/01/01 06:01:48;;;;;;;10.18;4.00;;;;;;;13.77;80.24;100251.75;5180908;28;20480;-74
2023/01/01 06:04:18;;;;;;;11.32;3.70;;;;;;;13.72;81.15;100246.75;5167534;28;20639;-74
2023/01/01 06:06:48;;;;;;;8.32;3.63;;;;;;;13.78;80.78;100241.16;5190366;28;20502;-74
2023/01/01 06:09:18;;;;;;;7.45;3.90;;;;;;;13.74;81.34;100254.56;5182226;28;20022;-74
2023/01/01 06:11:49;;;;;;;9.45;3.60;;;;;;;13.75;80.88;100246.56;5185940;28;20042;-75
2023/01/01 06:14:19;;;;;;;6.65;3.67;;;;;;;13.78;80.70;100261.34;5192312;28;20511;-74
2023/01/01 06:16:51;;;;;;;10.68;3.90;;;;;;;13.70;81.94;100250.38;5190471;28;20057;-75
2023/01/01 06:19:21;;;;;;;9.25;4.25;;;;;;;13.79;81.12;100260.41;5186168;28;20092;-74
2023/01/01 06:21:51;;;;;;;9.98;4.05;;;;;;;13.77;81.22;100270.97;5167998;28;20022;-74
2023/01/01 06:24:21;;;;;;;8.55;3.97;;;;;;;13.77;81.12;100257.84;5172859;28;20030;-74
2023/01/01 06:26:52;;;;;;;9.25;3.92;;;;;;;13.82;81.20;100261.09;5181059;28;20559;-75
2023/01/01 06:29:22;;;;;;;8.82;3.65;;;;;;;13.75;81.56;100279.88;5189531;28;20534;-75
2023/01/01 06:31:52;;;;;;;9.38;3.65;;;;;;;13.85;80.97;100279.31;5199026;28;20025;-76
2023/01/01 06:34:23;;;;;;;7.97;3.72;;;;;;;13.84;80.70;100279.38;5177253;28;20116;-74
2023/01/01 06:36:53;;;;;;;7.60;4.20;;;;;;;13.82;81.16;100290.00;5199009;22;20029;-73
2023/01/01 06:39:23;;;;;;;9.20;4.35;;;;;;;13.78;81.17;100284.97;5183746;28;20046;-72
2023/01/01 06:41:53;;;;;;;8.38;3.70;;;;;;;13.84;81.12;100295.16;5187422;28;20030;-72
2023/01/01 06:44:24;;;;;;;9.20;4.07;;;;;;;13.79;81.19;100294.56;5189229;28;20041;-72
2023/01/01 06:46:54;;;;;;;10.43;4.30;;;;;;;13.88;81.69;100307.22;5183326;28;20025;-72
2023/01/01 06:49:24;;;;;;;10.23;4.30;;;;;;;13.81;81.65;100305.81;5190449;28;20060;-72
2023/01/01 06:51:54;;;;;;;7.82;4.00;;;;;;;13.73;82.18;100297.50;5188282;28;20499;-72
2023/01/01 06:54:25;;;;;;;9.52;3.83;;;;;;;13.74;82.42;100278.19;5187432;28;20038;-72
2023/01/01 06:56:55;;;;;;;7.47;4.07;;;;;;;13.73;82.42;100284.38;5196694;28;20060;-72
2023/01/01 06:59:25;;;;;;;10.98;3.53;;;;;;;13.72;82.10;100290.56;5197487;28;20018;-72
2023/01/01 07:01:56;;;;;;;7.32;3.50;;;;;;;13.74;82.37;100296.56;5187889;28;20025;-72
2023/01/01 07:04:26;;;;;;;11.77;3.80;;;;;;;13.74;82.08;100322.84;5188126;28;20040;-72
2023/01/01 07:06:56;;;;;;;8.43;3.50;;;;;;;13.64;82.37;100319.84;5199072;28;20056;-72
2023/01/01 07:09:26;;;;;;;13.70;4.13;;;;;;;13.72;82.12;100322.91;5199864;28;20053;-72
2023/01/01 07:11:57;;;;;;;14.88;4.00;;;;;;;13.67;82.80;100334.56;5190354;28;20040;-71
2023/01/01 07:14:27;;;;;;;11.20;4.10;;;;;;;13.61;83.26;100342.78;5199152;28;20159;-72
2023/01/01 07:16:57;;;;;;;8.35;3.78;;;;;;;13.59;83.72;100345.47;5199022;28;20048;-72
2023/01/01 07:19:27;;;;;;;8.38;3.80;;;;;;;13.70;83.43;100355.44;5197138;28;20036;-72
2023/01/01 07:21:58;;;;;;;8.60;3.80;;;;;;;13.68;83.17;100349.41;5184276;28;20041;-73
2023/01/01 07:24:28;;;;;;;11.18;3.47;;;;;;;13.67;83.74;100352.97;5191755;28;20022;-72
2023/01/01 07:26:58;;;;;;;8.98;3.63;;;;;;;13.79;83.21;100363.72;5198934;28;20033;-72
2023/01/01 07:29:29;;;;;;;8.50;3.50;;;;;;;13.78;83.28;100369.03;5191076;28;20156;-72
2023/01/01 07:31:59;;;;;;;9.45;3.55;;;;;;;13.72;83.24;100364.94;5185047;28;20514;-72
2023/01/01 07:34:29;;;;;;;8.57;4.00;;;;;;;13.69;83.91;100364.22;5195654;28;20021;-72
2023/01/01 07:36:59;;;;;;;11.93;3.80;;;;;;;13.69;84.22;100375.59;5199723;28;20057;-72
2023/01/01 07:39:30;;;;;;;9.82;3.38;;;;;;;13.69;83.67;100370.34;5216963;28;20025;-72
2023/01/01 07:42:00;;;;;;;10.23;4.13;;;;;;;13.77;83.89;100362.91;5211824;28;20518;-72
2023/01/01 07:44:30;;;;;;;10.13;3.80;;;;;;;13.67;84.08;100366.09;5206660;28;20034;-72
2023/01/01 07:47:07;;;;;;;9.05;4.00;;;;;;;13.76;84.21;100368.25;5218112;28;20502;-72
2023/01/01 07:49:38;;;;;;;7.53;3.85;;;;;;;13.75;84.79;100379.69;5212963;28;20036;-72
2023/01/01 07:52:08;;;;;;;8.68;4.13;;;;;;;13.78;84.54;100387.41;5220365;28;20028;-72
2023/01/01 07:54:38;;;;;;;7.57;3.78;;;;;;;13.80;84.92;100393.44;5222373;28;20033;-72
2023/01/01 07:57:09;;;;;;;7.50;4.07;;;;;;;13.79;84.78;100397.00;5199227;28;20566;-73
2023/01/01 07:59:39;;;;;;;9.70;4.00;;;;;;;13.83;85.32;100403.78;5223216;28;20025;-72
2023/01/01 08:02:14;;;;;;;9.65;3.80;;;;;;;13.87;84.49;100411.44;5208892;28;20029;-72
2023/01/01 08:04:44;;;;;;;10.20;4.22;;;;;;;13.85;84.71;100420.31;5198636;28;20509;-72
2023/01/01 08:07:14;;;;;;;9.55;3.92;;;;;;;13.83;85.09;100415.16;5206423;28;20041;-72
2023/01/01 08:09:44;;;;;;;8.88;4.28;;;;;;;13.91;85.43;100428.72;5211871;28;20040;-72
2023/01/01 08:12:15;;;;;;;10.55;4.38;;;;;;;13.90;85.16;100426.19;5203087;28;20089;-72
2023/01/01 08:14:45;;;;;;;10.30;4.25;;;;;;;13.90;85.24;100436.72;5214182;28;20088;-72
2023/01/01 08:17:16;;;;;;;8.82;3.85;;;;;;;13.94;85.28;100436.44;5209929;28;20029;-72
2023/01/01 08:19:48;;;;;;;13.90;4.20;;;;;;;14.06;85.31;100441.09;5188779;28;20037;-72
2023/01/01 08:22:18;;;;;;;8.18;4.13;;;;;;;14.08;85.41;100447.09;5207750;28;20021;-72
2023/01/01 08:24:48;;;;;;;8.85;4.10;;;;;;;14.01;85.18;100445.72;5203161;28;20039;-71
2023/01/01 08:27:19;;;;;;;7.82;3.58;;;;;;;13.89;85.84;100450.78;5206019;28;20021;-72
2023/01/01 08:29:49;;;;;;;7.57;4.13;;;;;;;13.91;85.55;100444.50;5218067;28;20088;-72
2023/01/01 08:32:19;;;;;;;8.50;3.97;;;;;;;13.91;85.85;100434.00;5207121;28;20308;-72
2023/01/01 08:34:49;;;;;;;8.05;3.97;;;;;;;13.97;85.84;100438.94;5206185;28;20049;-72
2023/01/01 08:37:21;;;;;;;9.65;4.32;;;;;;;14.04;85.60;100435.06;5204788;28;20037;-72
2023/01/01 08:39:52;;;;;;;9.27;3.97;;;;;;;14.09;85.23;100446.16;5185744;28;20025;-72
2023/01/01 08:42:22;;;;;;;12.45;4.78;;;;;;;14.01;85.13;100447.50;5207342;28;20032;-72
2023/01/01 08:44:52;;;;;;;10.52;4.03;;;;;;;14.00;85.62;100443.19;5205339;28;20037;-72
2023/01/01 08:47:25;;;;;;;11.63;3.92;;;;;;;14.05;85.71;100443.81;5211149;28;20506;-72
2023/01/01 08:49:55;;;;;;;9.45;3.70;;;;;;;14.18;85.22;100452.75;5209739;28;20047;-72
2023/01/01 08:52:25;;;;;;;8.02;3.80;;;;;;;14.20;85.29;100450.91;5207542;28;20048;-72
2023/01/01 08:54:56;;;;;;;12.90;3.97;;;;;;;14.25;84.98;100448.91;5214200;28;20382;-72
2023/01/01 08:57:29;;;;;;;7.13;3.40;;;;;;;14.17;85.12;100458.94;5212029;28;20108;-72
2023/01/01 09:00:00;;;;;;;8.77;3.47;;;;;;;14.13;84.20;100468.75;5215438;28;20040;-72
2023/01/01 09:02:30;;;;;;;8.18;3.50;;;;;;;14.19;84.42;100457.09;5209062;28;20030;-72
2023/01/01 09:05:01;;;;;;;8.32;3.47;;;;;;;14.15;84.04;100463.41;5203186;28;20053;-72
2023/01/01 09:07:31;;;;;;;6.43;3.17;;;;;;;14.10;84.04;100452.28;5218963;28;20111;-72
2023/01/01 09:10:01;;;;;;;7.85;3.50;;;;;;;14.15;83.65;100469.53;5201572;28;20399;-72
2023/01/01 09:12:32;;;;;;;9.65;3.95;;;;;;;14.12;84.00;100468.84;5204385;28;20028;-72
2023/01/01 09:15:02;;;;;;;7.90;3.22;;;;;;;14.22;83.40;100480.63;5212144;28;20056;-72
2023/01/01 09:17:33;;;;;;;9.57;3.95;;;;;;;14.23;83.11;100482.31;5221143;28;20233;-73
2023/01/01 09:20:03;;;;;;;6.97;3.25;;;;;;;14.24;82.73;100487.47;5204953;28;20439;-72
2023/01/01 09:22:33;;;;;;;9.02;3.30;;;;;;;14.23;82.79;100505.97;5206924;28;20516;-72
2023/01/01 09:25:04;;;;;;;5.10;2.75;;;;;;;14.24;82.76;100503.25;5208220;28;20032;-72
2023/01/01 09:27:34;;;;;;;6.25;3.00;;;;;;;14.26;83.32;100518.94;5210695;28;20063;-73
2023/01/01 09:30:05;;;;;;;6.38;3.20;;;;;;;14.31;83.63;100519.56;5210103;28;20100;-72
2023/01/01 09:32:36;;;;;;;8.55;3.30;;;;;;;14.24;83.29;100524.28;5207934;28;20028;-72
2023/01/01 09:35:06;;;;;;;8.43;3.22;;;;;;;14.22;83.52;100534.03;5205441;28;20033;-72
2023/01/01 09:37:37;;;;;;;6.15;3.08;;;;;;;14.26;83.67;100545.25;5208839;28;20062;-72
2023/01/01 09:40:22;;;;;;;6.43;3.03;;;;;;;14.27;83.11;100549.56;5207917;28;20053;-72
2023/01/01 09:43:05;;;;;;;7.05;3.38;;;;;;;14.28;83.48;100554.72;5216205;28;20423;-72
2023/01/01 09:45:57;;;;;;;7.35;3.30;;;;;;;14.28;83.44;100549.47;5221070;28;20033;-72
2023/01/01 09:48:30;;;;;;;6.25;2.78;;;;;;;14.36;83.35;100541.19;5199512;28;20136;-72
2023/01/01 09:51:04;;;;;;;7.65;3.00;;;;;;;14.30;84.09;100538.91;5208954;28;20399;-72
2023/01/01 09:54:24;;;;;;;7.47;3.05;;;;;;;14.34;83.51;100557.06;5195100;28;20102;-72
2023/01/01 09:56:58;;;;;;;6.57;3.28;;;;;;;14.36;84.36;100567.50;5209636;28;20120;-72
2023/01/01 09:59:28;;;;;;;8.25;3.53;;;;;;;14.42;83.70;100567.19;5208530;28;20037;-72
2023/01/01 10:02:02;;;;;;;7.63;3.17;;;;;;;14.54;83.47;100566.53;5203584;28;20029;-72
2023/01/01 10:05:02;;;;;;;6.07;2.63;;;;;;;14.64;83.07;100573.03;5203846;28;20114;-72
2023/01/01 10:07:49;;;;;;;10.23;3.28;;;;;;;14.67;82.67;100572.88;5195339;28;20072;-72
2023/01/01 10:10:34;;;;;;;7.63;3.03;;;;;;;14.67;82.79;100576.38;5212141;28;20378;-72
2023/01/01 10:13:33;;;;;;;7.00;2.90;;;;;;;14.71;82.81;100584.94;5212000;28;20028;-72
2023/01/01 10:16:12;;;;;;;6.07;2.60;;;;;;;14.68;83.36;100583.34;5207766;28;20033;-73
2023/01/01 10:18:45;;;;;;;8.80;2.97;;;;;;;14.82;82.93;100585.22;5202485;28;20114;-72
2023/01/01 10:21:25;;;;;;;6.72;2.33;;;;;;;14.75;82.85;100579.44;5201594;28;20037;-72
2023/01/01 10:24:02;;;;;;;10.13;2.90;;;;;;;14.82;82.18;100573.78;5214669;28;20083;-72
2023/01/01 10:26:34;;;;;;;7.53;2.65;;;;;;;14.77;82.86;100569.69;5220448;28;20032;-73
2023/01/01 10:29:07;;;;;;;11.50;3.28;;;;;;;14.80;83.82;100568.69;5203178;28;20498;-72
2023/01/01 10:31:44;;;;;;;7.80;2.70;;;;;;;14.81;84.21;100578.28;5210091;28;20029;-72
2023/01/01 10:34:27;;;;;;;5.72;2.67;;;;;;;14.77;83.39;100569.69;5202926;28;20037;-73
2023/01/01 10:36:59;;;;;;;8.15;2.95;;;;;;;14.91;83.45;100570.66;5214249;28;20038;-73
2023/01/01 10:39:30;;;;;;;5.82;2.47;;;;;;;14.88;82.92;100570.81;5210007;28;20308;-73
2023/01/01 10:42:02;;;;;;;5.68;2.72;;;;;;;14.95;82.52;100568.69;5193748;28;20157;-73
2023/01/01 10:44:33;;;;;;;5.97;2.58;;;;;;;14.91;83.36;100570.66;5208232;28;20037;-72
2023/01/01 10:47:22;;;;;;;7.75;2.63;;;;;;;14.79;83.07;100577.50;5194416;28;20078;-72
2023/01/01 10:49:55;;;;;;;10.73;2.72;;;;;;;14.76;83.38;100589.03;5202370;28;20338;-72
2023/01/01 10:52:34;;;;;;;5.75;2.28;;;;;;;14.74;83.36;100590.06;5185165;28;20076;-73
2023/01/01 10:55:17;;;;;;;4.43;2.00;;;;;;;14.76;83.58;100588.19;5208003;28;20132;-72
2023/01/01 10:57:48;;;;;;;7.82;2.92;;;;;;;14.75;82.68;100599.66;5206308;28;20037;-73
2023/01/01 11:00:28;;;;;;;7.72;2.80;;;;;;;14.70;82.76;100594.63;5195099;28;20805;-72
2023/01/01 11:03:17;;;;;;;7.05;2.47;;;;;;;14.73;82.94;100596.25;5187424;28;20086;-72
2023/01/01 11:05:59;;;;;;;6.03;1.95;;;;;;;14.78;81.98;100600.31;5205610;28;20386;-72
2023/01/01 11:08:34;;;;;;;6.85;2.20;;;;;;;14.72;82.28;100592.75;5206088;28;20059;-72
2023/01/01 11:11:04;;;;;;;6.97;2.40;;;;;;;14.68;82.46;100601.75;5213361;28;20064;-72
2023/01/01 11:13:35;;;;;;;6.75;2.45;;;;;;;14.66;82.37;100597.47;5210878;28;20055;-71
2023/01/01 11:16:10;;;;;;;8.38;2.40;;;;;;;14.64;82.62;100601.97;5218370;28;20090;-72
2023/01/01 11:18:40;;;;;;;5.75;2.05;;;;;;;14.75;82.71;100608.38;5218265;28;20035;-72
2023/01/01 11:21:18;;;;;;;5.90;2.17;;;;;;;14.67;82.98;100630.75;5201066;28;20029;-72
2023/01/01 11:24:05;;;;;;;3.50;1.60;;;;;;;14.76;83.38;100625.03;5201494;28;20026;-71
2023/01/01 11:26:36;;;;;;;6.65;1.63;;;;;;;14.66;84.53;100615.91;5181983;28;20028;-72
2023/01/01 11:29:15;;;;;;;4.38;1.83;;;;;;;14.43;84.98;100634.63;5206102;28;20053;-72
2023/01/01 11:31:46;;;;;;;4.00;1.63;;;;;;;14.46;85.79;100637.94;5204275;28;20643;-72
2023/01/01 11:34:31;;;;;;;6.20;1.88;;;;;;;14.36;86.95;100630.59;5203234;28;20542;-72
2023/01/01 11:37:32;;;;;;;5.68;1.52;;;;;;;14.26;88.07;100643.34;5192947;28;20780;-72
2023/01/01 11:40:05;;;;;;;3.55;1.20;;;;;;;14.14;89.22;100657.09;5189079;28;20596;-72
2023/01/01 11:42:36;;;;;;;6.97;1.45;;;;;;;14.10;90.80;100646.78;5199520;28;20203;-72
2023/01/01 11:45:20;;;;;;;8.68;2.05;;;;;;;14.01;91.78;100636.69;5195775;28;20053;-72
2023/01/01 11:47:55;;;;;;;5.18;1.35;;;;;;;13.97;92.57;100625.50;5198194;28;20433;-72
2023/01/01 11:50:33;;;;;;;5.10;1.30;;;;;;;13.87;93.37;100621.63;5194956;28;20060;-72
2023/01/01 11:53:21;;;;;;;5.40;1.27;;;;;;;13.87;93.54;100611.09;5204514;28;20025;-72
2023/01/01 11:55:58;;;;;;;4.55;1.20;;;;;;;13.81;94.53;100614.03;5206346;28;20731;-72
2023/01/01 11:58:35;;;;;;;4.07;1.30;;;;;;;13.71;95.32;100617.19;5189192;28;20036;-72
2023/01/01 12:01:09;;;;;;;3.10;1.20;;;;;;;13.76;96.51;100612.56;5212347;28;20159;-72
2023/01/01 12:03:47;;;;;;;11.00;1.80;;;;;;;13.61;97.71;100635.13;5216570;28;20029;-72
2023/01/01 12:06:38;;;;;;;6.30;1.45;;;;;;;13.67;98.81;100632.22;5208195;28;20047;-72